Time;durP1;ratioP1;P1;durP2;ratioP2;P2;SDS_P1;SDS_P2;PMS_P1;PMS_P2;Temp;Humidity;BMP_temperature;BMP_pressure;BME280_temperature;BME280_humidity;BME280_pressure;Samples;Min_cycle;Max_cycle;Signal;HPM_P1;HPM_P2
2022/06/10 00:01:02;;;;;;;5.20;3.20;;;;;;;12.86;74.61;99461.56;2618498;54;20041;-66
2022/06/10 00:03:35;;;;;;;4.68;3.60;;;;;;;12.90;74.21;99464.66;2618848;46;20110;-67
2022/06/10 00:06:10;;;;;;;5.07;3.25;;;;;;;12.88;74.66;99466.66;2618624;54;20061;-67
2022/06/10 00:08:43;;;;;;;4.65;3.45;;;;;;;12.88;74.79;99471.97;2618528;54;20088;-68
2022/06/10 00:11:15;;;;;;;7.72;3.85;;;;;;;12.83;74.71;99471.72;2618456;54;20027;-66
2022/06/10 00:13:47;;;;;;;6.70;3.63;;;;;;;12.75;74.51;99471.84;2618450;54;20038;-65
2022/06/10 00:16:19;;;;;;;3.90;2.90;;;;;;;12.69;74.77;99468.09;2618617;54;20046;-67
2022/06/10 00:18:49;;;;;;;5.30;3.38;;;;;;;12.61;74.82;99478.84;2618229;54;20038;-66
2022/06/10 00:21:23;;;;;;;4.82;3.13;;;;;;;12.55;75.13;99483.09;2618307;54;20035;-67
2022/06/10 00:23:53;;;;;;;5.60;2.75;;;;;;;12.64;75.67;99473.97;2618113;47;20038;-66
2022/06/10 00:26:23;;;;;;;5.90;3.30;;;;;;;12.83;74.73;99474.38;2617951;47;20026;-67
2022/06/10 00:28:52;;;;;;;5.70;2.90;;;;;;;12.95;74.60;99482.66;2618274;54;20038;-67
2022/06/10 00:31:23;;;;;;;7.38;3.05;;;;;;;13.01;74.35;99484.53;2618200;54;20026;-67
2022/06/10 00:33:54;;;;;;;5.75;3.15;;;;;;;13.08;73.98;99493.38;2617997;54;20031;-67
2022/06/10 00:36:27;;;;;;;10.65;3.08;;;;;;;13.10;73.78;99486.88;2617737;54;20061;-67
2022/06/10 00:38:57;;;;;;;7.93;3.25;;;;;;;13.12;73.47;99484.81;2617710;54;20030;-67
2022/06/10 00:41:27;;;;;;;5.70;3.05;;;;;;;13.18;73.55;99485.88;2618123;54;20038;-68
2022/06/10 00:43:56;;;;;;;5.78;3.25;;;;;;;13.22;72.89;99487.13;2618924;54;20038;-67
2022/06/10 00:46:33;;;;;;;4.53;3.05;;;;;;;13.28;73.09;99486.41;2618560;54;20018;-67
2022/06/10 00:49:13;;;;;;;10.25;3.03;;;;;;;13.20;72.56;99483.88;2618183;47;20019;-67
2022/06/10 00:51:48;;;;;;;6.10;3.25;;;;;;;13.04;72.45;99489.44;2618364;54;20033;-67
2022/06/10 00:54:22;;;;;;;5.43;3.08;;;;;;;12.88;72.98;99486.03;2618992;54;20035;-67
2022/06/10 00:56:55;;;;;;;6.18;3.60;;;;;;;12.86;73.35;99485.44;2619824;39;20433;-66
2022/06/10 00:59:29;;;;;;;4.30;3.35;;;;;;;12.71;73.14;99483.84;2619045;54;20026;-66
2022/06/10 01:02:04;;;;;;;5.88;3.30;;;;;;;12.47;73.90;99485.03;2619161;54;20038;-66
2022/06/10 01:04:34;;;;;;;12.80;3.33;;;;;;;12.52;74.67;99485.28;2619383;54;20030;-66
2022/06/10 01:07:06;;;;;;;5.93;3.40;;;;;;;12.56;74.50;99479.41;2619216;54;20026;-66
2022/06/10 01:09:37;;;;;;;7.45;3.67;;;;;;;12.56;73.92;99479.41;2619159;39;20489;-65
2022/06/10 01:12:22;;;;;;;5.97;3.30;;;;;;;12.38;73.85;99476.38;2619216;54;20033;-67
2022/06/10 01:15:04;;;;;;;10.98;3.95;;;;;;;12.22;74.53;99484.56;2619478;39;20425;-66
2022/06/10 01:17:56;;;;;;;6.00;3.35;;;;;;;12.13;75.34;99482.03;2618813;54;20035;-67
2022/06/10 01:20:38;;;;;;;4.38;2.88;;;;;;;12.14;75.06;99483.66;2618961;54;20034;-67
2022/06/10 01:24:00;;;;;;;5.47;3.25;;;;;;;12.12;75.21;99483.03;2618862;54;20023;-67
2022/06/10 01:30:17;;;;;;;5.97;4.10;;;;;;;12.13;75.09;99484.66;2619285;54;20023;-67
2022/06/10 01:33:00;;;;;;;4.35;3.67;;;;;;;12.08;74.70;99486.22;2618830;54;20042;-68
2022/06/10 01:35:37;;;;;;;3.50;3.20;;;;;;;11.98;74.73;99489.16;2621302;54;20551;-67
2022/06/10 01:38:13;;;;;;;5.55;3.28;;;;;;;11.95;75.35;99486.06;2620962;54;20030;-69
2022/06/10 01:40:53;;;;;;;4.65;3.10;;;;;;;11.98;75.22;99488.34;2621570;54;20043;-68
2022/06/10 01:43:34;;;;;;;5.70;3.50;;;;;;;12.05;75.44;99490.06;2621509;54;20895;-66
2022/06/10 01:46:12;;;;;;;5.40;3.10;;;;;;;12.06;74.79;99490.91;2620512;54;20158;-66
2022/06/10 01:48:52;;;;;;;4.43;3.05;;;;;;;12.03;75.03;99491.25;2618849;39;20442;-66
2022/06/10 01:51:27;;;;;;;4.50;3.30;;;;;;;11.93;75.04;99494.19;2619304;54;20153;-66
2022/06/10 01:54:03;;;;;;;5.97;3.15;;;;;;;11.83;75.28;99491.81;2619081;54;20027;-66
2022/06/10 01:56:35;;;;;;;7.43;3.38;;;;;;;11.86;75.82;99490.63;2618939;54;20549;-66
2022/06/10 01:59:11;;;;;;;6.03;3.70;;;;;;;12.03;75.39;99493.91;2619096;54;20049;-66
2022/06/10 02:01:44;;;;;;;5.93;4.18;;;;;;;12.00;74.55;99481.03;2618704;47;20038;-66
2022/06/10 02:04:21;;;;;;;4.78;3.10;;;;;;;11.94;74.96;99490.53;2619302;54;20026;-67
2022/06/10 02:06:55;;;;;;;6.05;3.17;;;;;;;11.82;75.36;99494.63;2619320;54;20027;-68
2022/06/10 02:09:27;;;;;;;;;;;;;;;11.73;75.11;99488.59;2619310;54;20030;-66
2022/06/10 02:12:06;;;;;;;5.65;3.88;;;;;;;11.74;75.25;99492.06;2619972;39;20338;-66
2022/06/10 02:14:50;;;;;;;4.90;3.47;;;;;;;11.70;74.87;99504.03;2620227;54;20023;-68
2022/06/10 02:17:21;;;;;;;4.60;3.08;;;;;;;11.60;75.15;99499.03;2618770;54;20034;-66
2022/06/10 02:19:58;;;;;;;5.05;3.28;;;;;;;11.49;75.33;99507.41;2619228;54;20031;-67
2022/06/10 02:22:34;;;;;;;5.35;3.40;;;;;;;11.46;76.07;99507.75;2619244;54;20738;-66
2022/06/10 02:25:09;;;;;;;7.25;3.90;;;;;;;11.45;75.79;99504.31;2619183;54;20038;-66
2022/06/10 02:27:41;;;;;;;13.23;6.82;;;;;;;11.45;75.81;99506.94;2618242;47;20113;-66
2022/06/10 02:30:17;;;;;;;7.10;3.60;;;;;;;11.45;75.83;99504.31;2619029;54;20030;-68
2022/06/10 02:32:47;;;;;;;5.70;3.10;;;;;;;11.46;76.01;99505.94;2618697;54;20052;-66
2022/06/10 02:35:21;;;;;;;6.65;3.25;;;;;;;11.43;75.96;99508.13;2618328;54;20034;-67
2022/06/10 02:38:03;;;;;;;6.45;3.50;;;;;;;11.37;75.95;99505.19;2619491;39;20486;-67
2022/06/10 02:40:42;;;;;;;6.13;3.17;;;;;;;11.35;75.74;99511.69;2624606;47;20037;-66
2022/06/10 02:43:23;;;;;;;4.72;3.35;;;;;;;11.34;76.10;99523.25;2620967;54;20039;-66
2022/06/10 02:46:01;;;;;;;3.70;3.38;;;;;;;11.28;76.06;99521.34;2620940;54;20110;-66
2022/06/10 02:48:37;;;;;;;4.68;3.25;;;;;;;11.22;75.74;99524.69;2622129;54;20027;-66
2022/06/10 02:51:09;;;;;;;10.27;5.03;;;;;;;11.22;76.29;99533.47;2622808;54;20031;-68
2022/06/10 02:53:39;;;;;;;4.43;3.28;;;;;;;11.25;76.23;99525.16;2620422;46;20030;-65
2022/06/10 02:56:18;;;;;;;4.15;3.50;;;;;;;11.21;75.81;99523.06;2620726;54;20031;-65
2022/06/10 03:01:46;;;;;;;5.78;3.72;;;;;;;11.08;76.31;99529.78;2621103;51;20577;-65
2022/06/10 03:04:24;;;;;;;5.78;3.88;;;;;;;11.09;76.60;99533.25;2621994;54;20073;-65
2022/06/10 03:07:29;;;;;;;5.80;3.88;;;;;;;11.10;76.21;99537.53;2621696;46;20030;-66
2022/06/10 03:10:10;;;;;;;3.45;2.85;;;;;;;10.97;76.25;99538.13;2621876;54;20057;-66
2022/06/10 03:12:47;;;;;;;5.47;3.50;;;;;;;11.00;76.47;99545.72;2622335;54;20034;-66
2022/06/10 03:15:27;;;;;;;6.13;4.20;;;;;;;10.92;76.29;99535.19;2621286;54;20038;-66
2022/06/10 03:18:06;;;;;;;5.28;3.42;;;;;;;10.93;76.30;99549.25;2620713;47;20030;-66
2022/06/10 03:20:42;;;;;;;4.78;3.78;;;;;;;10.93;76.14;99536.00;2621377;54;20121;-67
2022/06/10 03:23:25;;;;;;;7.55;4.72;;;;;;;10.86;76.24;99544.66;2620670;54;20815;-66
2022/06/10 03:25:58;;;;;;;6.10;3.53;;;;;;;10.82;76.37;99546.03;2620024;54;20154;-67
2022/06/10 03:28:35;;;;;;;5.27;3.47;;;;;;;10.88;76.70;99542.66;2619382;54;20074;-66
2022/06/10 03:31:10;;;;;;;4.10;3.40;;;;;;;10.94;76.51;99551.72;2620248;39;20426;-67
2022/06/10 03:33:45;;;;;;;7.47;3.97;;;;;;;10.94;75.85;99557.03;2619040;54;20045;-68
2022/06/10 03:36:18;;;;;;;5.25;3.28;;;;;;;10.83;76.30;99550.31;2619085;54;20061;-66
2022/06/10 03:38:53;;;;;;;5.20;3.55;;;;;;;10.80;76.16;99555.94;2618926;54;20062;-66
2022/06/10 03:41:26;;;;;;;7.93;3.63;;;;;;;10.98;76.25;99555.66;2618790;54;20075;-67
2022/06/10 03:43:58;;;;;;;4.28;3.45;;;;;;;11.14;75.80;99562.63;2618079;47;20048;-66
2022/06/10 03:46:32;;;;;;;6.10;3.30;;;;;;;11.19;75.60;99562.13;2618638;54;20026;-65
2022/06/10 03:49:07;;;;;;;5.95;3.05;;;;;;;11.09;75.64;99562.34;2618247;54;20054;-66
2022/06/10 03:51:37;;;;;;;3.88;3.08;;;;;;;11.10;75.71;99569.28;2618293;54;20035;-69
2022/06/10 03:54:10;;;;;;;5.03;3.55;;;;;;;11.24;75.39;99567.69;2618327;54;20027;-67
2022/06/10 03:56:39;;;;;;;5.15;3.53;;;;;;;11.20;74.58;99561.94;2618445;54;20030;-67
2022/06/10 03:59:09;;;;;;;5.35;3.30;;;;;;;11.19;74.63;99567.41;2618203;54;20122;-67
2022/06/10 04:01:39;;;;;;;4.03;3.53;;;;;;;11.11;74.61;99570.94;2618207;54;20030;-67
2022/06/10 04:04:09;;;;;;;4.95;3.67;;;;;;;11.02;74.88;99571.97;2618578;39;20418;-67
2022/06/10 04:06:39;;;;;;;5.90;3.40;;;;;;;10.97;74.97;99571.69;2618310;54;20034;-67
2022/06/10 04:09:30;;;;;;;5.50;3.10;;;;;;;10.87;74.99;99577.22;2618072;54;20039;-67
2022/06/10 04:12:00;;;;;;;4.32;3.55;;;;;;;10.77;75.63;99579.25;2617819;47;20034;-67
2022/06/10 04:14:30;;;;;;;3.75;3.38;;;;;;;10.91;75.80;99579.34;2618318;54;20038;-67
2022/06/10 04:17:00;;;;;;;7.43;3.58;;;;;;;11.07;75.58;99599.59;2618930;39;20426;-67
2022/06/10 04:19:30;;;;;;;5.43;3.03;;;;;;;11.27;75.18;99594.63;2617825;54;20034;-67
2022/06/10 04:22:00;;;;;;;6.53;3.40;;;;;;;11.34;74.82;99600.84;2618167;54;20042;-67
2022/06/10 04:24:32;;;;;;;3.78;3.45;;;;;;;11.42;74.81;99594.66;2617903;39;20426;-67
2022/06/10 04:27:02;;;;;;;5.63;3.85;;;;;;;11.51;74.46;99598.06;2618294;54;20037;-67
2022/06/10 04:29:32;;;;;;;4.35;3.35;;;;;;;11.55;73.66;99602.00;2618107;54;20023;-66
2022/06/10 04:32:01;;;;;;;5.72;3.53;;;;;;;11.56;73.87;99595.72;2618053;54;20122;-66
2022/06/10 04:34:31;;;;;;;5.22;3.70;;;;;;;11.61;73.75;99596.00;2617964;54;20042;-66
2022/06/10 04:37:01;;;;;;;9.20;4.30;;;;;;;11.64;73.73;99601.75;2618179;54;20067;-67
2022/06/10 04:39:34;;;;;;;6.15;3.72;;;;;;;11.75;73.55;99604.97;2617934;54;20030;-66
2022/06/10 04:42:04;;;;;;;6.63;4.25;;;;;;;11.81;73.17;99605.06;2618139;54;20023;-66
2022/06/10 04:44:33;;;;;;;4.68;3.88;;;;;;;11.86;73.07;99610.69;2617804;54;20038;-67
2022/06/10 04:47:03;;;;;;;7.70;4.50;;;;;;;11.93;72.38;99609.97;2617513;54;20069;-65
2022/06/10 04:49:33;;;;;;;10.40;4.55;;;;;;;11.97;72.58;99619.19;2617686;54;20068;-66
2022/06/10 04:52:03;;;;;;;3.83;3.42;;;;;;;12.08;72.38;99616.94;2618110;54;20038;-68
2022/06/10 04:54:35;;;;;;;6.47;3.40;;;;;;;12.16;71.98;99621.28;2617579;51;20026;-67
2022/06/10 04:57:05;;;;;;;5.90;3.58;;;;;;;12.25;71.75;99612.25;2622453;47;20037;-69
2022/06/10 04:59:35;;;;;;;7.63;4.10;;;;;;;12.34;71.88;99611.16;2620347;47;20523;-67
2022/06/10 05:02:05;;;;;;;5.93;3.40;;;;;;;12.45;71.68;99615.16;2618197;54;20022;-67
2022/06/10 05:04:34;;;;;;;6.05;3.40;;;;;;;12.49;71.08;99611.16;2620072;47;20032;-68
2022/06/10 05:07:04;;;;;;;5.35;3.80;;;;;;;12.64;70.88;99614.56;2619021;46;20069;-67
2022/06/10 05:09:37;;;;;;;5.38;4.07;;;;;;;12.71;70.70;99614.66;2619786;54;20018;-68
2022/06/10 05:12:08;;;;;;;7.28;4.35;;;;;;;12.77;70.16;99610.44;2619729;54;20553;-67
2022/06/10 05:14:37;;;;;;;7.47;4.13;;;;;;;12.78;69.96;99615.56;2619231;54;20042;-67
2022/06/10 05:17:07;;;;;;;7.97;4.22;;;;;;;12.82;70.13;99616.03;2618203;54;20061;-67
2022/06/10 05:19:37;;;;;;;8.48;3.75;;;;;;;12.79;70.27;99616.38;2617968;54;20141;-67
2022/06/10 05:22:07;;;;;;;4.55;3.40;;;;;;;12.91;69.91;99614.06;2617846;54;20031;-67
2022/06/10 05:24:39;;;;;;;4.28;3.83;;;;;;;13.05;69.73;99631.75;2617866;47;20026;-67
2022/06/10 05:27:09;;;;;;;8.32;4.15;;;;;;;13.14;69.76;99614.69;2617302;47;20058;-67
2022/06/10 05:29:39;;;;;;;7.47;4.13;;;;;;;13.14;69.41;99622.66;2618466;54;20078;-67
2022/06/10 05:32:10;;;;;;;6.90;4.18;;;;;;;13.18;69.19;99623.09;2619053;54;20050;-66
2022/06/10 05:34:48;;;;;;;5.78;3.88;;;;;;;13.22;68.87;99627.03;2619114;54;20029;-67
2022/06/10 05:37:20;;;;;;;4.45;3.90;;;;;;;13.26;69.16;99623.00;2619448;39;20450;-67
2022/06/10 05:39:53;;;;;;;6.10;4.25;;;;;;;13.28;68.72;99626.31;2618911;54;20035;-68
2022/06/10 05:42:23;;;;;;;11.55;6.28;;;;;;;13.34;69.12;99628.19;2619174;54;20050;-67
2022/06/10 05:44:54;;;;;;;11.00;5.63;;;;;;;13.50;68.96;99622.63;2619530;39;20399;-66
2022/06/10 05:47:25;;;;;;;6.68;5.22;;;;;;;13.64;68.71;99620.91;2618589;54;20038;-66
2022/06/10 05:49:57;;;;;;;9.27;4.80;;;;;;;13.73;68.69;99618.94;2618785;54;20030;-66
2022/06/10 05:52:30;;;;;;;6.15;4.47;;;;;;;13.81;68.01;99622.25;2618841;54;20041;-67
2022/06/10 05:55:05;;;;;;;5.22;4.70;;;;;;;13.99;68.20;99620.94;2619445;54;20035;-67
2022/06/10 05:57:35;;;;;;;5.95;4.00;;;;;;;14.08;67.00;99617.97;2618583;54;20050;-67
2022/06/10 06:00:07;;;;;;;5.35;4.10;;;;;;;14.08;67.02;99611.78;2618950;54;20065;-68
2022/06/10 06:02:36;;;;;;;6.03;4.15;;;;;;;14.13;67.14;99620.03;2619103;54;20022;-66
2022/06/10 06:05:07;;;;;;;7.15;4.60;;;;;;;14.23;66.76;99619.66;2618944;54;20633;-67
2022/06/10 06:07:37;;;;;;;7.28;4.75;;;;;;;14.32;66.56;99619.28;2618750;54;20057;-67
2022/06/10 06:10:10;;;;;;;5.65;4.40;;;;;;;14.37;66.37;99611.56;2618828;54;20070;-66
2022/06/10 06:12:40;;;;;;;7.00;3.97;;;;;;;14.49;66.58;99619.00;2618917;54;20030;-67
2022/06/10 06:15:12;;;;;;;4.13;3.72;;;;;;;14.56;66.04;99617.19;2618788;54;20026;-67
2022/06/10 06:17:42;;;;;;;7.07;5.35;;;;;;;14.60;65.92;99621.91;2619010;54;20027;-67
2022/06/10 06:20:15;;;;;;;9.05;4.38;;;;;;;14.63;66.08;99631.34;2619314;54;20065;-67
2022/06/10 06:22:46;;;;;;;11.18;5.00;;;;;;;14.68;65.92;99625.44;2619537;54;20031;-67
2022/06/10 06:25:20;;;;;;;6.78;4.40;;;;;;;14.64;65.85;99626.84;2619341;54;20041;-67
2022/06/10 06:27:50;;;;;;;;;;;;;;;14.71;66.35;99631.19;2619380;54;20031;-68
2022/06/10 06:30:26;;;;;;;7.75;4.90;;;;;;;14.74;65.84;99622.00;2619753;31;20446;-67
2022/06/10 06:32:56;;;;;;;10.82;5.95;;;;;;;14.84;66.39;99631.22;2618741;54;20050;-67
2022/06/10 06:35:27;;;;;;;7.82;4.63;;;;;;;14.95;66.42;99631.66;2618716;54;20105;-68
2022/06/10 06:37:56;;;;;;;7.45;5.25;;;;;;;15.02;66.23;99629.81;2618356;49;20038;-66
2022/06/10 06:40:29;;;;;;;8.80;5.00;;;;;;;15.16;65.89;99631.50;2619121;54;20037;-66
2022/06/10 06:42:59;;;;;;;7.32;4.82;;;;;;;15.27;65.87;99632.78;2618856;54;20034;-67
2022/06/10 06:45:28;;;;;;;6.15;4.43;;;;;;;15.43;65.77;99627.06;2618962;54;20035;-67
2022/06/10 06:48:04;;;;;;;8.55;5.00;;;;;;;15.54;65.75;99628.28;2618357;54;20019;-67
2022/06/10 06:50:36;;;;;;;6.05;5.05;;;;;;;15.69;65.01;99628.91;2618216;54;20038;-67
2022/06/10 22:02:34;;;;;;;7.70;3.38;;;;;;;17.60;57.85;99480.53;2591319;39;20504;-66
2022/06/10 22:05:15;;;;;;;10.27;3.72;;;;;;;17.60;58.40;99475.19;2621628;54;20593;-65
2022/06/10 22:07:47;;;;;;;5.47;3.08;;;;;;;17.47;58.75;99474.28;2622346;39;20437;-66
2022/06/10 22:10:19;;;;;;;9.25;3.30;;;;;;;17.34;59.51;99475.19;2620998;54;20081;-67
2022/06/10 22:12:50;;;;;;;6.20;3.10;;;;;;;17.26;59.87;99480.00;2621475;54;20044;-66
2022/06/10 22:15:23;;;;;;;5.63;3.28;;;;;;;17.17;60.20;99475.97;2621623;54;20039;-66
2022/06/10 22:17:57;;;;;;;4.93;3.60;;;;;;;17.14;60.50;99479.91;2619233;54;20045;-66
2022/06/10 22:20:30;;;;;;;5.72;3.35;;;;;;;17.14;60.68;99474.56;2619494;39;20404;-66
2022/06/10 22:23:02;;;;;;;6.93;3.88;;;;;;;17.10;60.78;99476.03;2619050;54;20038;-66
2022/06/10 22:25:35;;;;;;;7.20;3.15;;;;;;;17.11;60.78;99482.22;2619048;54;20043;-67
2022/06/10 22:28:07;;;;;;;8.38;3.90;;;;;;;17.06;60.51;99474.81;2618745;54;20031;-66
2022/06/10 22:30:41;;;;;;;6.85;3.53;;;;;;;16.90;61.18;99481.56;2620474;54;20038;-67
2022/06/10 22:33:39;;;;;;;11.00;4.00;;;;;;;16.76;61.41;99470.13;2623074;54;20648;-66
2022/06/10 22:36:09;;;;;;;6.30;3.58;;;;;;;16.71;61.63;99475.28;2621959;47;20529;-68
2022/06/10 22:38:41;;;;;;;4.43;3.25;;;;;;;16.67;61.61;99476.75;2623087;39;20422;-66
2022/06/10 22:41:34;;;;;;;5.38;3.47;;;;;;;16.62;61.97;99479.25;2620167;39;20539;-66
2022/06/10 22:44:04;;;;;;;3.38;3.00;;;;;;;16.60;61.92;99475.97;2619168;54;20045;-67
2022/06/10 22:46:38;;;;;;;5.13;3.10;;;;;;;16.56;61.75;99472.09;2618972;54;20085;-67
2022/06/10 22:49:27;;;;;;;3.47;3.13;;;;;;;16.63;62.12;99478.22;2618711;54;20145;-66
2022/06/10 22:51:59;;;;;;;5.88;3.58;;;;;;;16.59;61.80;99474.34;2618279;54;20046;-66
2022/06/10 22:54:31;;;;;;;3.38;2.67;;;;;;;16.61;61.74;99482.94;2617877;54;20034;-67
2022/06/10 22:57:01;;;;;;;6.13;2.80;;;;;;;16.63;61.49;99478.22;2618757;54;20050;-67
2022/06/10 22:59:31;;;;;;;4.60;3.15;;;;;;;16.60;61.86;99482.13;2618174;54;20030;-67
2022/06/10 23:02:03;;;;;;;4.40;3.03;;;;;;;16.57;61.95;99479.06;2618379;54;20085;-66
2022/06/10 23:07:22;;;;;;;5.00;2.60;;;;;;;16.67;61.71;99491.94;2618666;54;20035;-68
2022/06/10 23:12:35;;;;;;;7.57;3.13;;;;;;;16.62;61.98;99497.13;2618734;54;19938;-67
2022/06/10 23:15:06;;;;;;;6.65;3.05;;;;;;;16.68;61.71;99501.59;2618864;54;20580;-67
2022/06/10 23:17:42;;;;;;;4.40;3.10;;;;;;;16.63;61.90;99494.22;2618605;54;20033;-67
2022/06/10 23:20:24;;;;;;;6.22;3.90;;;;;;;16.49;62.18;99500.66;2618323;54;20037;-66
2022/06/10 23:22:54;;;;;;;5.80;3.38;;;;;;;16.33;63.17;99505.47;2618894;54;20057;-66
2022/06/10 23:25:26;;;;;;;4.60;2.92;;;;;;;16.44;62.87;99503.16;2618940;54;20038;-66
2022/06/10 23:27:57;;;;;;;4.72;3.10;;;;;;;16.53;62.83;99509.88;2618781;54;20038;-67
2022/06/10 23:30:29;;;;;;;6.15;3.13;;;;;;;16.56;62.54;99509.47;2618271;47;20027;-65
2022/06/10 23:33:05;;;;;;;5.50;2.92;;;;;;;16.54;62.56;99507.00;2619005;54;20026;-66
2022/06/10 23:35:43;;;;;;;4.93;2.92;;;;;;;16.37;62.88;99513.88;2618902;54;20034;-68
2022/06/10 23:38:17;;;;;;;4.82;3.10;;;;;;;16.34;63.48;99512.44;2618860;54;20049;-66
2022/06/10 23:40:49;;;;;;;7.43;3.58;;;;;;;16.41;63.01;99506.25;2618946;54;20022;-66
2022/06/10 23:43:22;;;;;;;6.47;3.50;;;;;;;16.36;63.10;99509.56;2619110;54;20547;-66
2022/06/10 23:51:26;;;;;;;8.52;3.67;;;;;;;15.98;64.22;99504.19;2618745;54;20034;-67
2022/06/10 23:53:57;;;;;;;;;;;;;;;15.97;63.94;99507.88;2618800;54;20042;-67
2022/06/10 23:56:28;;;;;;;8.38;3.45;;;;;;;15.95;63.77;99507.25;2618757;54;19945;-66
2022/06/10 23:59:03;;;;;;;3.45;3.00;;;;;;;15.90;64.15;99501.75;2618388;54;20026;-68
